Fairbanks, AK (99775)

6:40 PM AKDT on April 30, 2017 (GMT -0800)
Homestead | | Change Station

Elev 446 ft 64.86 °N, 147.78 °W | Updated 8 seconds ago

Mostly Cloudy
Mostly Cloudy
45.0 °F
Feels Like 45 °F
N
2.0
Wind Variable Wind from West

Today
High -- | Low -- °F
--% Chance of Precip.
Yesterday
High -- | Low -- °F
Precip. -- in
Pressure 29.70 in
Visibility 10.0 miles
Clouds Scattered Clouds 4000 ft
Scattered Clouds 6500 ft
Mostly Cloudy 20000 ft
Windchill 45 °F
Dew Point 35 °F
Humidity 69%
Rainfall 0.07 in
Snow Depth Not available.
5:19 AM 10:19 PM
Waxing Crescent, 28% visible
METAR PAFA 010153Z 05007KT 10SM SCT040 SCT065 BKN200 12/02 A2968 RMK AO2 RAB22E34 SLP056 VIRGA NE NW P0000 T01170022 $
Pressure 29.70 in
Visibility 10.0 miles
Clouds Scattered Clouds 4000 ft
Scattered Clouds 6500 ft
Mostly Cloudy 20000 ft
Windchill 45 °F
Dew Point 35 °F
Humidity 69%
Rainfall 0.07 in
Snow Depth Not available.
5:19 AM 10:19 PM
Waxing Crescent, 28% visible
METAR PAFA 010153Z 05007KT 10SM SCT040 SCT065 BKN200 12/02 A2968 RMK AO2 RAB22E34 SLP056 VIRGA NE NW P0000 T01170022 $

Get Severe Weather Alerts

Thanks for signing up!

Be on the lookout for a verification email in your inbox.

You'll start receiving the daily forecast at 8 AM.

×

10-Day Weather Forecast

Almanac

Astronomy

Apr. 30, 2017 Rise Set
Actual Time
Civil Twilight
Nautical Twilight
Astronomical Twilight
Moon
Length of Visible Light
Length of Day
Tomorrow will be .
, % of the Moon is Illuminated

Today's Extremes

State Highs State Lows

Community

WunderPhotos

WunderBlog® & News

Nearby

Air Quality

  Air Quality AQ Index Pollutant
Not available.

Snow Depth

Station Depth Elevation

Earthquake Activity

City Distance Mag. Time & Date
Minimum magnitude displayed is 2.5.

Coastal Water Temperatures

Place Temperature

Stations

Nearby Weather Stations

Station Location Temp. Windchill Dew Point Humidity Wind Precip. Elev Updated Type
                   

Watches & Warnings

There are currently no watches in effect.